Time;durP1;ratioP1;P1;durP2;ratioP2;P2;SDS_P1;SDS_P2;PMS_P1;PMS_P2;Temp;Humidity;BMP_temperature;BMP_pressure;BME280_temperature;BME280_humidity;BME280_pressure;Samples;Min_cycle;Max_cycle;Signal;HPM_P1;HPM_P2
2021/04/30 00:00:09;;;;;;;13.65;11.20;;;;;;;-146.32;100.00;63746.28;663631;29;13880;-68
2021/04/30 00:00:31;;;;;;;13.60;10.93;;;;;;;-146.32;100.00;63746.28;657052;30;65623;-66
2021/04/30 00:00:53;;;;;;;13.10;10.95;;;;;;;-146.32;100.00;63746.28;658595;30;14821;-66
2021/04/30 00:01:14;;;;;;;12.85;10.85;;;;;;;-146.32;100.00;63746.28;656282;30;70047;-66
2021/04/30 00:01:35;;;;;;;12.73;10.70;;;;;;;-146.32;100.00;63746.28;657918;30;44398;-66
2021/04/30 00:01:56;;;;;;;13.20;10.73;;;;;;;-146.32;100.00;63746.28;658486;30;22408;-66
2021/04/30 00:02:17;;;;;;;13.48;10.85;;;;;;;-146.32;100.00;63746.28;659632;29;23431;-66
2021/04/30 00:02:41;;;;;;;12.32;10.27;;;;;;;-146.32;100.00;63746.28;663218;29;20841;-66
2021/04/30 00:03:02;;;;;;;15.93;11.15;;;;;;;-146.32;100.00;63746.28;662185;29;41527;-66
2021/04/30 00:03:23;;;;;;;13.50;10.93;;;;;;;-146.32;100.00;63746.28;662615;29;44420;-66
2021/04/30 00:03:44;;;;;;;12.60;11.25;;;;;;;-146.32;100.00;63746.28;663735;29;16062;-66
2021/04/30 00:04:06;;;;;;;12.73;11.02;;;;;;;-146.32;100.00;63746.28;664492;29;6894;-66
2021/04/30 00:04:27;;;;;;;12.73;10.97;;;;;;;-146.32;100.00;63746.28;662534;29;45343;-66
2021/04/30 00:04:48;;;;;;;12.00;10.52;;;;;;;-146.32;100.00;63746.28;663068;29;20337;-66
2021/04/30 00:05:10;;;;;;;12.30;10.77;;;;;;;-146.32;100.00;63746.28;663608;29;18509;-66
2021/04/30 00:05:32;;;;;;;12.60;10.93;;;;;;;-146.32;100.00;63746.28;662748;29;44372;-66
2021/04/30 00:05:53;;;;;;;12.80;11.02;;;;;;;-146.32;100.00;63746.28;662946;29;46397;-66
2021/04/30 00:06:15;;;;;;;13.95;10.75;;;;;;;-146.32;100.00;63746.28;664060;29;9000;-66
2021/04/30 00:06:36;;;;;;;12.98;10.55;;;;;;;-146.32;100.00;63746.28;664143;29;11973;-66
2021/04/30 00:06:57;;;;;;;11.65;10.35;;;;;;;-146.32;100.00;63746.28;662517;29;44205;-66
2021/04/30 00:07:18;;;;;;;11.23;10.02;;;;;;;-146.32;100.00;63746.28;663181;29;24259;-66
2021/04/30 00:07:40;;;;;;;13.30;10.52;;;;;;;-146.32;100.00;63746.28;663098;29;22419;-66
2021/04/30 00:08:02;;;;;;;12.77;10.70;;;;;;;-146.32;100.00;63746.28;663959;29;1765;-66
2021/04/30 00:08:23;;;;;;;13.43;10.90;;;;;;;-146.32;100.00;63746.28;661587;29;1011;-66
2021/04/30 00:08:44;;;;;;;14.10;10.60;;;;;;;-146.32;100.00;63746.28;660785;29;22421;-66
2021/04/30 00:09:06;;;;;;;14.00;11.30;;;;;;;-146.32;100.00;63746.28;661538;29;1611;-66
2021/04/30 00:09:28;;;;;;;13.50;11.27;;;;;;;-146.32;100.00;63746.28;661145;29;1000;-66
2021/04/30 00:09:49;;;;;;;12.95;10.70;;;;;;;-146.32;100.00;63746.28;659947;29;23122;-66
2021/04/30 00:10:11;;;;;;;13.52;10.75;;;;;;;-146.32;100.00;63746.28;661600;29;22398;-66
2021/04/30 00:10:32;;;;;;;11.93;10.50;;;;;;;-146.32;100.00;63746.28;661534;29;69696;-66
2021/04/30 00:10:54;;;;;;;12.23;10.77;;;;;;;-146.32;100.00;63746.28;663201;29;30648;-66
2021/04/30 00:11:15;;;;;;;13.20;10.88;;;;;;;-146.32;100.00;63746.28;662659;29;23455;-66
2021/04/30 00:11:39;;;;;;;12.32;10.90;;;;;;;-146.32;100.00;63746.28;662300;29;15693;-66
2021/04/30 00:12:00;;;;;;;12.68;10.35;;;;;;;-146.32;100.00;63746.28;660843;29;46031;-66
2021/04/30 00:12:22;;;;;;;13.75;10.35;;;;;;;-146.32;100.00;63746.28;662659;29;931;-66
2021/04/30 00:12:43;;;;;;;14.38;10.65;;;;;;;-146.32;100.00;63746.28;661849;29;14328;-66
2021/04/30 00:13:04;;;;;;;14.00;10.65;;;;;;;-146.32;100.00;63746.28;661086;29;46692;-66
2021/04/30 00:13:28;;;;;;;12.20;10.65;;;;;;;-146.32;100.00;63746.28;661872;29;2989;-66
2021/04/30 00:13:49;;;;;;;13.35;10.75;;;;;;;-146.32;100.00;63746.28;663466;29;23480;-66
2021/04/30 00:14:10;;;;;;;13.35;10.68;;;;;;;-146.32;100.00;63746.28;663753;29;8501;-66
2021/04/30 00:14:32;;;;;;;13.07;10.40;;;;;;;-146.32;100.00;63746.28;664134;29;1608;-66
2021/04/30 00:14:54;;;;;;;11.93;10.20;;;;;;;-146.32;100.00;63746.28;663569;29;1135;-66
2021/04/30 00:15:16;;;;;;;11.77;10.18;;;;;;;-146.32;100.00;63746.28;663355;29;23896;-66
2021/04/30 00:15:38;;;;;;;11.23;9.70;;;;;;;-146.32;100.00;63746.28;662658;29;45212;-66
2021/04/30 00:15:59;;;;;;;12.38;10.40;;;;;;;-146.32;100.00;63746.28;662437;29;58551;-66
2021/04/30 00:16:21;;;;;;;12.15;10.35;;;;;;;-146.32;100.00;63746.28;663540;29;22404;-66
2021/04/30 00:16:42;;;;;;;13.68;10.30;;;;;;;-146.32;100.00;63746.28;663762;29;24305;-66
2021/04/30 00:17:03;;;;;;;12.35;10.32;;;;;;;-146.32;100.00;63746.28;663568;29;23461;-66
2021/04/30 00:17:25;;;;;;;12.38;10.00;;;;;;;-146.32;100.00;63746.28;664518;29;909;-66
2021/04/30 00:17:50;;;;;;;13.60;10.60;;;;;;;-146.32;100.00;63746.28;662753;29;38394;-66
2021/04/30 00:18:11;;;;;;;11.77;9.80;;;;;;;-146.32;100.00;63746.28;663440;29;13810;-66
2021/04/30 00:18:33;;;;;;;12.32;10.05;;;;;;;-146.32;100.00;63746.28;663266;29;39556;-66
2021/04/30 00:18:54;;;;;;;12.65;9.90;;;;;;;-146.32;100.00;63746.28;664487;29;933;-66
2021/04/30 00:19:15;;;;;;;12.30;10.10;;;;;;;-146.32;100.00;63746.28;662452;29;45450;-66
2021/04/30 00:19:36;;;;;;;11.25;9.80;;;;;;;-146.32;100.00;63746.28;663450;29;1495;-66
2021/04/30 00:19:59;;;;;;;11.15;9.40;;;;;;;-146.32;100.00;63746.28;664215;29;930;-66
2021/04/30 00:20:20;;;;;;;12.05;10.20;;;;;;;-146.32;100.00;63746.28;663497;29;24568;-66
2021/04/30 00:20:50;;;;;;;12.70;10.00;;;;;;;-146.32;100.00;63746.28;663749;29;23359;-66
2021/04/30 00:21:11;;;;;;;12.35;10.02;;;;;;;-146.32;100.00;63746.28;659132;29;137864;-65
2021/04/30 00:21:33;;;;;;;11.82;10.02;;;;;;;-146.32;100.00;63746.28;662621;29;43554;-66
2021/04/30 00:21:54;;;;;;;11.65;9.75;;;;;;;-146.32;100.00;63746.28;664217;29;5335;-66
2021/04/30 00:22:15;;;;;;;11.32;9.60;;;;;;;-146.32;100.00;63746.28;663745;29;19600;-66
2021/04/30 00:22:36;;;;;;;11.10;9.40;;;;;;;-146.32;100.00;63746.28;662698;29;46187;-66
2021/04/30 00:22:58;;;;;;;12.23;10.32;;;;;;;-146.32;100.00;63746.28;663006;29;22383;-66
2021/04/30 00:23:24;;;;;;;10.98;9.75;;;;;;;-146.32;100.00;63746.28;663366;29;20083;-65
2021/04/30 00:23:45;;;;;;;12.63;9.70;;;;;;;-146.32;100.00;63746.28;659158;29;152320;-66
2021/04/30 00:24:07;;;;;;;12.77;9.73;;;;;;;-146.32;100.00;63746.28;662651;29;46686;-66
2021/04/30 00:24:28;;;;;;;12.27;10.15;;;;;;;-146.32;100.00;63746.28;662244;29;46359;-66
2021/04/30 00:24:49;;;;;;;11.85;10.10;;;;;;;-146.32;100.00;63746.28;663313;29;23494;-66
2021/04/30 00:25:11;;;;;;;11.10;9.95;;;;;;;-146.32;100.00;63746.28;662962;29;22164;-66
2021/04/30 00:25:33;;;;;;;10.85;9.75;;;;;;;-146.32;100.00;63746.28;664234;29;895;-66
2021/04/30 00:25:54;;;;;;;11.93;9.48;;;;;;;-146.32;100.00;63746.28;663681;29;22125;-66
2021/04/30 00:26:16;;;;;;;11.82;9.25;;;;;;;-146.32;100.00;63746.28;663733;29;11738;-66
2021/04/30 00:26:37;;;;;;;11.90;9.80;;;;;;;-146.32;100.00;63746.28;662764;29;38723;-66
2021/04/30 00:26:58;;;;;;;11.77;9.80;;;;;;;-146.32;100.00;63746.28;663300;29;21441;-66
2021/04/30 00:27:20;;;;;;;12.63;10.25;;;;;;;-146.32;100.00;63746.28;662741;29;44605;-66
2021/04/30 00:27:41;;;;;;;11.20;9.93;;;;;;;-146.32;100.00;63746.28;663626;29;23465;-66
2021/04/30 00:28:02;;;;;;;11.00;9.65;;;;;;;-146.32;100.00;63746.28;662750;29;23442;-66
2021/04/30 00:28:24;;;;;;;12.38;10.13;;;;;;;-146.32;100.00;63746.28;662687;29;46355;-65
2021/04/30 00:28:45;;;;;;;12.25;10.48;;;;;;;-146.32;100.00;63746.28;663621;29;21388;-66
2021/04/30 00:29:07;;;;;;;12.15;10.38;;;;;;;-146.32;100.00;63746.28;663574;29;21920;-66
2021/04/30 00:29:28;;;;;;;12.18;10.27;;;;;;;-146.32;100.00;63746.28;661938;29;46561;-66
2021/04/30 00:29:49;;;;;;;11.93;9.95;;;;;;;-146.32;100.00;63746.28;662979;29;17108;-66
2021/04/30 00:30:13;;;;;;;12.00;10.25;;;;;;;-146.32;100.00;63746.28;663575;29;10569;-66
2021/04/30 00:30:34;;;;;;;12.68;10.00;;;;;;;-146.32;100.00;63746.28;661788;29;73006;-66
2021/04/30 00:30:56;;;;;;;11.25;9.50;;;;;;;-146.32;100.00;63746.28;663001;29;23540;-66
2021/04/30 00:31:18;;;;;;;12.63;10.05;;;;;;;-146.32;100.00;63746.28;662458;29;37516;-66
2021/04/30 00:31:40;;;;;;;11.55;10.05;;;;;;;-146.32;100.00;63746.28;662840;29;46376;-66
2021/04/30 00:32:01;;;;;;;12.82;10.30;;;;;;;-146.32;100.00;63746.28;663002;29;36658;-66
2021/04/30 00:32:22;;;;;;;11.25;10.05;;;;;;;-146.32;100.00;63746.28;663892;29;7032;-66
2021/04/30 00:32:53;;;;;;;12.23;10.30;;;;;;;-146.32;100.00;63746.28;661814;29;61509;-66
2021/04/30 00:33:15;;;;;;;12.32;10.00;;;;;;;-146.32;100.00;63746.28;664324;29;1233;-66
2021/04/30 00:33:37;;;;;;;12.68;10.50;;;;;;;-146.32;100.00;63746.28;663620;29;22363;-66
2021/04/30 00:33:58;;;;;;;13.20;10.60;;;;;;;-146.32;100.00;63746.28;662763;29;42297;-66
2021/04/30 00:34:19;;;;;;;11.68;10.13;;;;;;;-146.32;100.00;63746.28;662905;29;22359;-66
2021/04/30 00:34:40;;;;;;;11.60;10.40;;;;;;;-146.32;100.00;63746.28;663129;29;21509;-66
2021/04/30 00:35:02;;;;;;;12.23;10.40;;;;;;;-146.32;100.00;63746.28;663870;29;19816;-66
2021/04/30 00:35:23;;;;;;;11.68;10.05;;;;;;;-146.32;100.00;63746.28;663350;29;23598;-66
2021/04/30 00:35:44;;;;;;;12.43;10.65;;;;;;;-146.32;100.00;63746.28;662209;29;44391;-66
2021/04/30 00:36:05;;;;;;;12.63;10.23;;;;;;;-146.32;100.00;63746.28;663751;29;21538;-66
2021/04/30 00:36:26;;;;;;;12.82;9.98;;;;;;;-146.32;100.00;63746.28;663373;29;22491;-66
2021/04/30 00:36:48;;;;;;;12.98;10.35;;;;;;;-146.32;100.00;63746.28;663512;29;23520;-66
2021/04/30 00:37:09;;;;;;;13.77;10.57;;;;;;;-146.32;100.00;63746.28;662862;29;44424;-66
2021/04/30 00:37:30;;;;;;;12.65;10.40;;;;;;;-146.32;100.00;63746.28;663620;29;22433;-66
2021/04/30 00:37:51;;;;;;;12.48;10.13;;;;;;;-146.32;100.00;63746.28;663294;29;21348;-66
2021/04/30 00:38:13;;;;;;;12.38;10.07;;;;;;;-146.32;100.00;63746.28;663281;29;23565;-66
2021/04/30 00:38:34;;;;;;;11.77;9.85;;;;;;;-146.32;100.00;63746.28;663730;29;23523;-66
2021/04/30 00:38:55;;;;;;;13.50;10.40;;;;;;;-146.32;100.00;63746.28;662395;29;46631;-66
2021/04/30 00:39:16;;;;;;;13.18;10.50;;;;;;;-146.32;100.00;63746.28;663452;29;11107;-66
2021/04/30 00:39:40;;;;;;;13.13;10.52;;;;;;;-146.32;100.00;63746.28;663259;29;15042;-66
2021/04/30 00:40:02;;;;;;;13.27;10.65;;;;;;;-146.32;100.00;63746.28;663449;29;23373;-66
2021/04/30 00:40:23;;;;;;;12.43;10.00;;;;;;;-146.32;100.00;63746.28;664331;29;1250;-65
2021/04/30 00:40:46;;;;;;;11.73;10.20;;;;;;;-146.32;100.00;63746.28;663983;29;1235;-66
2021/04/30 00:41:07;;;;;;;11.77;9.90;;;;;;;-146.32;100.00;63746.28;663004;29;43353;-66
2021/04/30 00:41:28;;;;;;;13.55;10.60;;;;;;;-146.32;100.00;63746.28;662936;29;23456;-66
2021/04/30 00:41:49;;;;;;;12.38;10.35;;;;;;;-146.32;100.00;63746.28;662436;29;41417;-66
2021/04/30 00:42:15;;;;;;;12.88;10.10;;;;;;;-146.32;100.00;63746.28;663918;29;15104;-66
2021/04/30 00:42:36;;;;;;;12.50;10.07;;;;;;;-146.32;100.00;63746.28;659894;29;138049;-66
2021/04/30 00:42:57;;;;;;;10.75;9.65;;;;;;;-146.32;100.00;63746.28;662519;29;45262;-66
2021/04/30 00:43:19;;;;;;;11.35;9.68;;;;;;;-146.32;100.00;63746.28;664026;29;12570;-66
2021/04/30 00:43:40;;;;;;;12.60;10.50;;;;;;;-146.32;100.00;63746.28;663808;29;17842;-66
2021/04/30 00:44:05;;;;;;;11.50;10.30;;;;;;;-146.32;100.00;63746.28;663260;29;41265;-66
2021/04/30 00:44:26;;;;;;;11.95;10.48;;;;;;;-146.32;100.00;63746.28;660840;29;103840;-66
2021/04/30 00:44:48;;;;;;;11.73;10.45;;;;;;;-146.32;100.00;63746.28;663381;29;21441;-66
2021/04/30 00:45:15;;;;;;;12.32;10.23;;;;;;;-146.32;100.00;63746.28;662983;29;22344;-66
2021/04/30 00:45:37;;;;;;;11.20;9.77;;;;;;;-146.32;100.00;63746.28;659673;29;138197;-66
2021/04/30 00:45:58;;;;;;;12.02;10.20;;;;;;;-146.32;100.00;63746.28;663472;29;23428;-66
2021/04/30 00:46:19;;;;;;;11.30;10.00;;;;;;;-146.32;100.00;63746.28;663561;29;5284;-66
2021/04/30 00:46:42;;;;;;;11.88;9.98;;;;;;;-146.32;100.00;63746.28;664023;29;916;-66
2021/04/30 00:47:03;;;;;;;11.63;10.20;;;;;;;-146.32;100.00;63746.28;662563;29;41404;-66
2021/04/30 00:47:34;;;;;;;11.68;10.13;;;;;;;-146.32;100.00;63746.28;662370;29;61442;-66
2021/04/30 00:47:56;;;;;;;11.63;10.43;;;;;;;-146.32;100.00;63746.28;664047;29;1559;-65
2021/04/30 00:48:17;;;;;;;12.73;10.82;;;;;;;-146.32;100.00;63746.28;663484;29;22380;-66
2021/04/30 00:48:39;;;;;;;12.18;10.10;;;;;;;-146.32;100.00;63746.28;662874;29;46754;-66
2021/04/30 00:49:00;;;;;;;12.75;10.23;;;;;;;-146.32;100.00;63746.28;664055;29;11997;-66
2021/04/30 00:49:21;;;;;;;12.10;9.70;;;;;;;-146.32;100.00;63746.28;662259;29;46477;-66
2021/04/30 00:49:42;;;;;;;12.88;10.07;;;;;;;-146.32;100.00;63746.28;663255;29;21504;-66
2021/04/30 00:50:05;;;;;;;11.52;10.30;;;;;;;-146.32;100.00;63746.28;663652;29;10751;-65
2021/04/30 00:50:28;;;;;;;11.35;10.15;;;;;;;-146.32;100.00;63746.28;661900;29;70467;-66
2021/04/30 00:50:49;;;;;;;11.48;10.05;;;;;;;-146.32;100.00;63746.28;663867;29;15516;-66
2021/04/30 00:51:10;;;;;;;12.00;9.82;;;;;;;-146.32;100.00;63746.28;663347;29;21514;-66
2021/04/30 00:51:32;;;;;;;13.18;10.02;;;;;;;-146.32;100.00;63746.28;662640;29;22471;-66
2021/04/30 00:51:53;;;;;;;11.75;9.85;;;;;;;-146.32;100.00;63746.28;662946;29;27821;-66
2021/04/30 00:52:14;;;;;;;12.02;10.23;;;;;;;-146.32;100.00;63746.28;663327;29;21539;-66
2021/04/30 00:52:36;;;;;;;12.55;10.00;;;;;;;-146.32;100.00;63746.28;663394;29;22411;-66
2021/04/30 00:52:57;;;;;;;12.73;10.02;;;;;;;-146.32;100.00;63746.28;662168;29;46358;-66
2021/04/30 00:53:18;;;;;;;12.93;10.05;;;;;;;-146.32;100.00;63746.28;662673;29;46721;-66
2021/04/30 00:53:39;;;;;;;13.32;10.50;;;;;;;-146.32;100.00;63746.28;663552;29;24335;-66
2021/04/30 00:54:00;;;;;;;10.73;9.40;;;;;;;-146.32;100.00;63746.28;663695;29;23897;-66
2021/04/30 00:54:22;;;;;;;11.60;9.98;;;;;;;-146.32;100.00;63746.28;663596;29;22425;-66
2021/04/30 00:54:43;;;;;;;11.73;10.40;;;;;;;-146.32;100.00;63746.28;663567;29;21071;-66
2021/04/30 00:55:06;;;;;;;11.30;10.10;;;;;;;-146.32;100.00;63746.28;663664;29;22399;-66
2021/04/30 00:55:27;;;;;;;11.32;9.82;;;;;;;-146.32;100.00;63746.28;661870;29;70600;-66
2021/04/30 00:55:48;;;;;;;12.43;10.25;;;;;;;-146.32;100.00;63746.28;663519;29;22194;-66
2021/04/30 00:56:09;;;;;;;12.15;10.35;;;;;;;-146.32;100.00;63746.28;662847;29;46401;-66
2021/04/30 00:56:32;;;;;;;11.50;10.30;;;;;;;-146.32;100.00;63746.28;664259;29;8443;-66
2021/04/30 00:56:53;;;;;;;12.23;9.82;;;;;;;-146.32;100.00;63746.28;662591;29;41818;-66
2021/04/30 00:57:16;;;;;;;12.90;10.25;;;;;;;-146.32;100.00;63746.28;662887;29;42683;-66
2021/04/30 00:57:39;;;;;;;11.70;10.25;;;;;;;-146.32;100.00;63746.28;662785;29;44051;-65
2021/04/30 00:58:01;;;;;;;11.23;10.02;;;;;;;-146.32;100.00;63746.28;662075;29;61440;-65
2021/04/30 00:58:22;;;;;;;11.57;10.20;;;;;;;-146.32;100.00;63746.28;662838;29;47518;-66
2021/04/30 00:58:44;;;;;;;12.10;10.40;;;;;;;-146.32;100.00;63746.28;663636;29;23468;-66
2021/04/30 00:59:05;;;;;;;11.82;10.18;;;;;;;-146.32;100.00;63746.28;662307;29;46310;-66
2021/04/30 00:59:26;;;;;;;10.93;9.82;;;;;;;-146.32;100.00;63746.28;662824;29;24035;-66
2021/04/30 00:59:47;;;;;;;14.52;10.20;;;;;;;-146.32;100.00;63746.28;663335;29;23531;-66
2021/04/30 01:00:11;;;;;;;12.60;9.93;;;;;;;-146.32;100.00;63746.28;663524;29;22396;-66
2021/04/30 01:00:33;;;;;;;10.93;9.57;;;;;;;-146.32;100.00;63746.28;661123;29;92489;-66
2021/04/30 01:00:54;;;;;;;11.98;10.50;;;;;;;-146.32;100.00;63746.28;662869;29;36764;-66
2021/04/30 01:01:15;;;;;;;12.18;10.23;;;;;;;-146.32;100.00;63746.28;663348;29;22756;-66
2021/04/30 01:01:37;;;;;;;10.93;9.77;;;;;;;-146.32;100.00;63746.28;661926;29;45274;-66
2021/04/30 01:01:58;;;;;;;11.00;9.85;;;;;;;-146.32;100.00;63746.28;663794;29;21089;-66
2021/04/30 01:02:19;;;;;;;10.95;9.80;;;;;;;-146.32;100.00;63746.28;663812;29;19827;-66
2021/04/30 01:02:40;;;;;;;11.00;9.90;;;;;;;-146.32;100.00;63746.28;663681;29;22422;-66
2021/04/30 01:03:02;;;;;;;10.75;9.65;;;;;;;-146.32;100.00;63746.28;663113;29;21571;-66
2021/04/30 01:03:24;;;;;;;12.10;9.50;;;;;;;-146.32;100.00;63746.28;662599;29;47085;-66
2021/04/30 01:03:46;;;;;;;11.15;9.68;;;;;;;-146.32;100.00;63746.28;662548;29;45409;-66
2021/04/30 01:04:07;;;;;;;10.73;9.63;;;;;;;-146.32;100.00;63746.28;662978;29;46305;-66
2021/04/30 01:04:28;;;;;;;10.95;9.32;;;;;;;-146.32;100.00;63746.28;663782;29;22409;-66
2021/04/30 01:04:50;;;;;;;11.80;9.85;;;;;;;-146.32;100.00;63746.28;662292;29;45022;-66
2021/04/30 01:05:12;;;;;;;12.20;10.13;;;;;;;-146.32;100.00;63746.28;663513;29;23658;-66
2021/04/30 01:05:33;;;;;;;11.50;9.70;;;;;;;-146.32;100.00;63746.28;662835;29;44368;-66
2021/04/30 01:05:54;;;;;;;8.55;7.25;;;;;;;-146.32;100.00;63746.28;663465;29;23425;-66
2021/04/30 01:06:16;;;;;;;8.45;7.60;;;;;;;-146.32;100.00;63746.28;663155;29;23521;-66
2021/04/30 01:06:38;;;;;;;9.10;8.17;;;;;;;-146.32;100.00;63746.28;661704;29;64584;-66
2021/04/30 01:06:59;;;;;;;12.02;9.57;;;;;;;-146.32;100.00;63746.28;662579;29;38265;-66
2021/04/30 01:07:20;;;;;;;10.50;9.40;;;;;;;-146.32;100.00;63746.28;662794;29;21537;-66
2021/04/30 01:07:41;;;;;;;18.90;9.07;;;;;;;-146.32;100.00;63746.28;663003;29;22386;-66
2021/04/30 01:08:03;;;;;;;20.05;9.80;;;;;;;-146.32;100.00;63746.28;662915;29;21517;-66
2021/04/30 01:08:24;;;;;;;12.05;9.73;;;;;;;-146.32;100.00;63746.28;663308;29;29995;-66
2021/04/30 01:08:45;;;;;;;13.32;10.20;;;;;;;-146.32;100.00;63746.28;663845;29;17311;-65
2021/04/30 01:09:06;;;;;;;11.55;10.05;;;;;;;-146.32;100.00;63746.28;663851;29;15043;-65
2021/04/30 01:09:27;;;;;;;10.85;9.70;;;;;;;-146.32;100.00;63746.28;663133;29;22361;-66
2021/04/30 01:09:49;;;;;;;10.57;9.48;;;;;;;-146.32;100.00;63746.28;663319;29;20938;-66
2021/04/30 01:10:11;;;;;;;10.63;9.52;;;;;;;-146.32;100.00;63746.28;662682;29;47225;-66
2021/04/30 01:10:32;;;;;;;11.65;9.57;;;;;;;-146.32;100.00;63746.28;662382;29;46373;-66
2021/04/30 01:10:53;;;;;;;10.98;9.85;;;;;;;-146.32;100.00;63746.28;662839;29;24472;-66
2021/04/30 01:11:15;;;;;;;10.80;9.70;;;;;;;-146.32;100.00;63746.28;663131;29;22413;-66
2021/04/30 01:11:37;;;;;;;10.52;9.40;;;;;;;-146.32;100.00;63746.28;661657;29;45266;-65
2021/04/30 01:11:58;;;;;;;12.20;9.30;;;;;;;-146.32;100.00;63746.28;663307;29;21550;-66
2021/04/30 01:12:20;;;;;;;11.35;9.40;;;;;;;-146.32;100.00;63746.28;662819;29;40695;-66
2021/04/30 01:12:42;;;;;;;10.40;9.27;;;;;;;-146.32;100.00;63746.28;663264;29;18476;-65
2021/04/30 01:13:04;;;;;;;12.48;9.80;;;;;;;-146.32;100.00;63746.28;663827;29;2090;-65
2021/04/30 01:13:27;;;;;;;11.48;9.60;;;;;;;-146.32;100.00;63746.28;663923;29;1509;-66
2021/04/30 01:13:49;;;;;;;10.65;9.55;;;;;;;-146.32;100.00;63746.28;664408;29;922;-66
2021/04/30 01:14:12;;;;;;;11.02;9.60;;;;;;;-146.32;100.00;63746.28;663820;29;952;-66
2021/04/30 01:14:33;;;;;;;11.43;9.38;;;;;;;-146.32;100.00;63746.28;664197;29;1564;-66
2021/04/30 01:14:54;;;;;;;10.27;9.07;;;;;;;-146.32;100.00;63746.28;664165;29;6909;-65
2021/04/30 01:15:17;;;;;;;10.20;9.20;;;;;;;-146.32;100.00;63746.28;663528;29;23534;-66
2021/04/30 01:15:39;;;;;;;10.73;9.60;;;;;;;-146.32;100.00;63746.28;663809;29;1204;-66
2021/04/30 01:16:01;;;;;;;11.25;9.55;;;;;;;-146.32;100.00;63746.28;663014;29;32073;-66
2021/04/30 01:16:24;;;;;;;10.90;9.50;;;;;;;-146.32;100.00;63746.28;660503;29;90363;-66
2021/04/30 01:16:48;;;;;;;11.55;9.70;;;;;;;-146.32;100.00;63746.28;660897;29;92325;-66
2021/04/30 01:17:09;;;;;;;10.63;9.23;;;;;;;-146.32;100.00;63746.28;661609;29;21313;-66
2021/04/30 01:17:31;;;;;;;11.20;9.32;;;;;;;-146.32;100.00;63746.28;662061;29;23490;-66
2021/04/30 01:17:52;;;;;;;11.10;9.75;;;;;;;-146.32;100.00;63746.28;661177;29;44168;-66
2021/04/30 01:18:13;;;;;;;10.77;9.23;;;;;;;-146.32;100.00;63746.28;661879;29;23534;-66
2021/04/30 01:18:45;;;;;;;11.50;9.60;;;;;;;-146.32;100.00;63746.28;662116;29;21536;-66
2021/04/30 01:19:06;;;;;;;11.35;9.73;;;;;;;-146.32;100.00;63746.28;659162;29;135920;-66
2021/04/30 01:19:29;;;;;;;10.20;9.00;;;;;;;-146.32;100.00;63746.28;663046;29;21516;-66
2021/04/30 01:19:50;;;;;;;11.15;9.98;;;;;;;-146.32;100.00;63746.28;661327;29;92155;-66
2021/04/30 01:20:14;;;;;;;11.65;9.98;;;;;;;-146.32;100.00;63746.28;662587;29;23509;-66
2021/04/30 01:20:35;;;;;;;12.23;9.75;;;;;;;-146.32;100.00;63746.28;660903;29;92363;-66
2021/04/30 01:20:57;;;;;;;11.13;9.82;;;;;;;-146.32;100.00;63746.28;662215;29;46407;-65
2021/04/30 01:21:23;;;;;;;10.73;9.18;;;;;;;-146.32;100.00;63746.28;663275;29;22393;-66
2021/04/30 01:21:45;;;;;;;10.57;9.48;;;;;;;-146.32;100.00;63746.28;658807;29;143037;-65
2021/04/30 01:22:06;;;;;;;11.82;9.95;;;;;;;-146.32;100.00;63746.28;663677;29;8924;-66
2021/04/30 01:22:32;;;;;;;12.15;10.07;;;;;;;-146.32;100.00;63746.28;661780;29;44386;-66
2021/04/30 01:22:54;;;;;;;11.63;9.75;;;;;;;-146.32;100.00;63746.28;660330;29;115535;-66
2021/04/30 01:23:15;;;;;;;11.75;9.95;;;;;;;-146.32;100.00;63746.28;662107;29;64352;-65
2021/04/30 01:23:46;;;;;;;10.57;9.48;;;;;;;-146.32;100.00;63746.28;662067;29;44562;-65
2021/04/30 01:24:08;;;;;;;11.13;9.93;;;;;;;-146.32;100.00;63746.28;659820;29;137843;-66
2021/04/30 01:24:29;;;;;;;12.45;10.07;;;;;;;-146.32;100.00;63746.28;661884;29;45281;-66
2021/04/30 01:24:51;;;;;;;11.07;9.45;;;;;;;-146.32;100.00;63746.28;663222;29;23441;-66
2021/04/30 01:25:13;;;;;;;10.80;9.70;;;;;;;-146.32;100.00;63746.28;663162;29;21545;-66
2021/04/30 01:25:37;;;;;;;11.20;10.00;;;;;;;-146.32;100.00;63746.28;661956;29;68160;-66
2021/04/30 01:25:58;;;;;;;12.40;10.15;;;;;;;-146.32;100.00;63746.28;661618;29;69408;-66
2021/04/30 01:26:20;;;;;;;11.25;9.90;;;;;;;-146.32;100.00;63746.28;663480;29;21259;-69
2021/04/30 01:26:42;;;;;;;10.77;9.63;;;;;;;-146.32;100.00;63746.28;661925;29;52328;-66
2021/04/30 01:27:04;;;;;;;11.70;9.80;;;;;;;-146.32;100.00;63746.28;662388;29;46391;-66
2021/04/30 01:27:25;;;;;;;10.75;9.25;;;;;;;-146.32;100.00;63746.28;663525;29;14151;-65
2021/04/30 01:27:48;;;;;;;11.27;9.65;;;;;;;-146.32;100.00;63746.28;664059;29;958;-66
2021/04/30 01:28:09;;;;;;;11.25;9.65;;;;;;;-146.32;100.00;63746.28;662557;29;46298;-65
2021/04/30 01:28:30;;;;;;;11.60;10.07;;;;;;;-146.32;100.00;63746.28;663445;29;22545;-66
2021/04/30 01:28:51;;;;;;;11.05;9.73;;;;;;;-146.32;100.00;63746.28;663477;29;23505;-65
2021/04/30 01:29:13;;;;;;;11.63;9.63;;;;;;;-146.32;100.00;63746.28;662787;29;45749;-66
2021/04/30 01:29:34;;;;;;;11.00;9.80;;;;;;;-146.32;100.00;63746.28;662121;29;46315;-66
2021/04/30 01:29:55;;;;;;;11.10;9.52;;;;;;;-146.32;100.00;63746.28;663661;29;2951;-66
2021/04/30 01:30:19;;;;;;;12.48;10.00;;;;;;;-146.32;100.00;63746.28;663097;29;19665;-66
2021/04/30 01:30:40;;;;;;;13.38;10.25;;;;;;;-146.32;100.00;63746.28;661519;29;70507;-66
2021/04/30 01:31:02;;;;;;;11.02;9.85;;;;;;;-146.32;100.00;63746.28;663550;29;19088;-66
2021/04/30 01:31:23;;;;;;;12.25;10.20;;;;;;;-146.32;100.00;63746.28;662952;29;35216;-66
2021/04/30 01:31:44;;;;;;;11.23;9.82;;;;;;;-146.32;100.00;63746.28;662636;29;16522;-66
2021/04/30 01:32:05;;;;;;;11.07;9.82;;;;;;;-146.32;100.00;63746.28;663253;29;24817;-66
2021/04/30 01:32:27;;;;;;;18.27;14.43;;;;;;;-146.32;100.00;63746.28;662132;29;44187;-65
2021/04/30 01:32:48;;;;;;;30.40;21.85;;;;;;;-146.32;100.00;63746.28;662738;29;20984;-66
2021/04/30 01:33:16;;;;;;;26.33;18.17;;;;;;;-146.32;100.00;63746.28;663848;29;17789;-66
2021/04/30 01:33:37;;;;;;;14.35;11.63;;;;;;;-146.32;100.00;63746.28;659242;29;137996;-66
2021/04/30 01:33:59;;;;;;;13.30;10.23;;;;;;;-146.32;100.00;63746.28;663291;29;22277;-66
2021/04/30 01:34:20;;;;;;;11.35;9.88;;;;;;;-146.32;100.00;63746.28;663224;29;22255;-66
2021/04/30 01:34:41;;;;;;;12.15;10.23;;;;;;;-146.32;100.00;63746.28;663224;29;23504;-66
2021/04/30 01:35:03;;;;;;;11.02;9.82;;;;;;;-146.32;100.00;63746.28;663413;29;11255;-66
2021/04/30 01:35:34;;;;;;;12.05;10.20;;;;;;;-146.32;100.00;63746.28;662051;29;59300;-66
2021/04/30 01:35:55;;;;;;;11.07;9.93;;;;;;;-146.32;100.00;63746.28;662241;29;66811;-66
2021/04/30 01:36:16;;;;;;;10.65;9.55;;;;;;;-146.32;100.00;63746.28;663647;29;31983;-66
2021/04/30 01:36:38;;;;;;;11.23;10.02;;;;;;;-146.32;100.00;63746.28;663859;29;23508;-66
2021/04/30 01:36:59;;;;;;;10.98;9.88;;;;;;;-146.32;100.00;63746.28;662201;29;40199;-66
2021/04/30 01:37:22;;;;;;;13.10;10.07;;;;;;;-146.32;100.00;63746.28;664030;29;1113;-66
2021/04/30 01:37:45;;;;;;;13.73;10.20;;;;;;;-146.32;100.00;63746.28;663247;29;41786;-66
2021/04/30 01:38:06;;;;;;;13.57;10.35;;;;;;;-146.32;100.00;63746.28;661719;29;83473;-66
2021/04/30 01:38:28;;;;;;;12.20;10.32;;;;;;;-146.32;100.00;63746.28;664806;29;1624;-66
2021/04/30 01:38:50;;;;;;;11.73;10.27;;;;;;;-146.32;100.00;63746.28;663728;29;23482;-66
2021/04/30 01:39:12;;;;;;;11.52;10.13;;;;;;;-146.32;100.00;63746.28;662536;29;47565;-66